sensor_id;sensor_type;location;lat;lon;timestamp;P1;durP1;ratioP1;P2;durP2;ratioP2
9821;SDS011;4950;46.042;14.472;2023-08-06T00:02:05;9.70;;;5.28;;
9821;SDS011;4950;46.042;14.472;2023-08-06T00:04:32;7.03;;;4.95;;
9821;SDS011;4950;46.042;14.472;2023-08-06T00:07:00;6.68;;;4.82;;
9821;SDS011;4950;46.042;14.472;2023-08-06T00:09:27;5.60;;;4.05;;
9821;SDS011;4950;46.042;14.472;2023-08-06T00:11:53;5.30;;;3.70;;
9821;SDS011;4950;46.042;14.472;2023-08-06T00:14:20;6.50;;;5.13;;
9821;SDS011;4950;46.042;14.472;2023-08-06T00:16:47;6.40;;;4.90;;
9821;SDS011;4950;46.042;14.472;2023-08-06T00:19:14;7.47;;;4.50;;
9821;SDS011;4950;46.042;14.472;2023-08-06T00:21:40;7.22;;;5.00;;
9821;SDS011;4950;46.042;14.472;2023-08-06T00:24:09;9.07;;;4.45;;
9821;SDS011;4950;46.042;14.472;2023-08-06T00:26:35;6.13;;;4.57;;
9821;SDS011;4950;46.042;14.472;2023-08-06T00:29:02;6.40;;;4.35;;
9821;SDS011;4950;46.042;14.472;2023-08-06T00:31:29;6.60;;;4.65;;
9821;SDS011;4950;46.042;14.472;2023-08-06T00:33:56;7.00;;;5.07;;
9821;SDS011;4950;46.042;14.472;2023-08-06T00:36:22;8.73;;;5.55;;
9821;SDS011;4950;46.042;14.472;2023-08-06T00:38:49;7.80;;;5.43;;
9821;SDS011;4950;46.042;14.472;2023-08-06T00:41:18;8.20;;;5.32;;
9821;SDS011;4950;46.042;14.472;2023-08-06T00:43:45;8.83;;;5.37;;
9821;SDS011;4950;46.042;14.472;2023-08-06T00:46:11;6.60;;;5.00;;
9821;SDS011;4950;46.042;14.472;2023-08-06T00:48:38;6.90;;;4.60;;
9821;SDS011;4950;46.042;14.472;2023-08-06T00:51:06;6.53;;;3.97;;
9821;SDS011;4950;46.042;14.472;2023-08-06T00:53:33;7.07;;;3.95;;
9821;SDS011;4950;46.042;14.472;2023-08-06T00:56:00;5.32;;;3.72;;
9821;SDS011;4950;46.042;14.472;2023-08-06T00:58:29;5.88;;;4.10;;
9821;SDS011;4950;46.042;14.472;2023-08-06T01:00:56;6.97;;;4.30;;
9821;SDS011;4950;46.042;14.472;2023-08-06T01:03:23;5.85;;;3.97;;
9821;SDS011;4950;46.042;14.472;2023-08-06T01:05:51;7.15;;;4.55;;
9821;SDS011;4950;46.042;14.472;2023-08-06T01:08:20;9.30;;;4.43;;
9821;SDS011;4950;46.042;14.472;2023-08-06T01:13:37;5.70;;;3.97;;
9821;SDS011;4950;46.042;14.472;2023-08-06T01:16:12;7.68;;;3.88;;
9821;SDS011;4950;46.042;14.472;2023-08-06T01:18:41;6.90;;;4.00;;
9821;SDS011;4950;46.042;14.472;2023-08-06T01:21:12;6.43;;;4.32;;
9821;SDS011;4950;46.042;14.472;2023-08-06T01:23:39;7.65;;;4.55;;
9821;SDS011;4950;46.042;14.472;2023-08-06T01:26:10;5.85;;;3.85;;
9821;SDS011;4950;46.042;14.472;2023-08-06T01:28:42;7.38;;;3.85;;
9821;SDS011;4950;46.042;14.472;2023-08-06T01:31:15;5.57;;;4.00;;
9821;SDS011;4950;46.042;14.472;2023-08-06T01:33:50;7.32;;;3.67;;
9821;SDS011;4950;46.042;14.472;2023-08-06T01:36:20;8.88;;;4.03;;
9821;SDS011;4950;46.042;14.472;2023-08-06T01:41:15;5.53;;;4.03;;
9821;SDS011;4950;46.042;14.472;2023-08-06T01:43:42;5.63;;;3.70;;
9821;SDS011;4950;46.042;14.472;2023-08-06T01:46:08;7.50;;;3.53;;
9821;SDS011;4950;46.042;14.472;2023-08-06T01:48:35;6.45;;;3.67;;
9821;SDS011;4950;46.042;14.472;2023-08-06T01:51:03;4.22;;;2.92;;
9821;SDS011;4950;46.042;14.472;2023-08-06T01:53:32;5.47;;;3.58;;
9821;SDS011;4950;46.042;14.472;2023-08-06T01:55:59;6.77;;;3.37;;
9821;SDS011;4950;46.042;14.472;2023-08-06T01:58:25;4.63;;;3.15;;
9821;SDS011;4950;46.042;14.472;2023-08-06T02:00:52;4.53;;;2.97;;
9821;SDS011;4950;46.042;14.472;2023-08-06T02:03:19;6.80;;;3.55;;
9821;SDS011;4950;46.042;14.472;2023-08-06T02:05:46;6.40;;;3.42;;
9821;SDS011;4950;46.042;14.472;2023-08-06T02:08:12;5.18;;;3.55;;
9821;SDS011;4950;46.042;14.472;2023-08-06T02:10:41;5.03;;;3.80;;
9821;SDS011;4950;46.042;14.472;2023-08-06T02:13:08;6.45;;;3.80;;
9821;SDS011;4950;46.042;14.472;2023-08-06T02:15:34;5.40;;;3.20;;
9821;SDS011;4950;46.042;14.472;2023-08-06T02:18:01;4.90;;;2.67;;
9821;SDS011;4950;46.042;14.472;2023-08-06T02:20:28;3.45;;;2.40;;
9821;SDS011;4950;46.042;14.472;2023-08-06T02:22:55;6.22;;;2.50;;
9821;SDS011;4950;46.042;14.472;2023-08-06T02:25:21;7.53;;;2.03;;
9821;SDS011;4950;46.042;14.472;2023-08-06T02:27:49;2.80;;;2.05;;
9821;SDS011;4950;46.042;14.472;2023-08-06T02:30:16;3.90;;;1.60;;
9821;SDS011;4950;46.042;14.472;2023-08-06T02:32:43;5.43;;;2.38;;
9821;SDS011;4950;46.042;14.472;2023-08-06T02:35:10;3.67;;;1.83;;
9821;SDS011;4950;46.042;14.472;2023-08-06T02:37:37;3.03;;;1.73;;
9821;SDS011;4950;46.042;14.472;2023-08-06T02:40:04;4.00;;;2.03;;
9821;SDS011;4950;46.042;14.472;2023-08-06T02:42:31;2.58;;;1.85;;
9821;SDS011;4950;46.042;14.472;2023-08-06T02:45:00;3.38;;;1.98;;
9821;SDS011;4950;46.042;14.472;2023-08-06T02:47:26;2.72;;;1.70;;
9821;SDS011;4950;46.042;14.472;2023-08-06T02:49:53;2.20;;;1.55;;
9821;SDS011;4950;46.042;14.472;2023-08-06T02:52:20;1.95;;;1.55;;
9821;SDS011;4950;46.042;14.472;2023-08-06T02:54:46;5.88;;;1.67;;
9821;SDS011;4950;46.042;14.472;2023-08-06T02:57:13;2.38;;;1.50;;
9821;SDS011;4950;46.042;14.472;2023-08-06T02:59:40;2.65;;;1.88;;
9821;SDS011;4950;46.042;14.472;2023-08-06T03:02:08;6.85;;;1.80;;
9821;SDS011;4950;46.042;14.472;2023-08-06T03:04:35;3.80;;;1.67;;
9821;SDS011;4950;46.042;14.472;2023-08-06T03:07:02;4.82;;;1.40;;
9821;SDS011;4950;46.042;14.472;2023-08-06T03:09:29;2.00;;;1.65;;
9821;SDS011;4950;46.042;14.472;2023-08-06T03:11:55;1.48;;;1.38;;
9821;SDS011;4950;46.042;14.472;2023-08-06T03:14:22;2.60;;;1.63;;
9821;SDS011;4950;46.042;14.472;2023-08-06T03:16:49;3.28;;;1.40;;
9821;SDS011;4950;46.042;14.472;2023-08-06T03:19:17;3.30;;;2.10;;
9821;SDS011;4950;46.042;14.472;2023-08-06T03:21:44;3.95;;;1.73;;
9821;SDS011;4950;46.042;14.472;2023-08-06T03:24:10;2.92;;;1.70;;
9821;SDS011;4950;46.042;14.472;2023-08-06T03:26:39;3.58;;;2.22;;
9821;SDS011;4950;46.042;14.472;2023-08-06T03:29:06;2.67;;;2.05;;
9821;SDS011;4950;46.042;14.472;2023-08-06T03:31:31;4.07;;;2.10;;
9821;SDS011;4950;46.042;14.472;2023-08-06T03:33:58;3.58;;;1.67;;
9821;SDS011;4950;46.042;14.472;2023-08-06T03:36:26;3.33;;;2.55;;
9821;SDS011;4950;46.042;14.472;2023-08-06T03:38:53;3.90;;;2.87;;
9821;SDS011;4950;46.042;14.472;2023-08-06T03:41:20;5.20;;;4.03;;
9821;SDS011;4950;46.042;14.472;2023-08-06T03:43:47;6.43;;;4.55;;
9821;SDS011;4950;46.042;14.472;2023-08-06T03:46:13;6.22;;;4.45;;
9821;SDS011;4950;46.042;14.472;2023-08-06T03:48:40;6.70;;;3.80;;
9821;SDS011;4950;46.042;14.472;2023-08-06T03:51:07;6.28;;;3.70;;
9821;SDS011;4950;46.042;14.472;2023-08-06T03:53:35;6.30;;;4.00;;
9821;SDS011;4950;46.042;14.472;2023-08-06T03:56:02;5.82;;;4.13;;
9821;SDS011;4950;46.042;14.472;2023-08-06T03:58:29;5.60;;;3.65;;
9821;SDS011;4950;46.042;14.472;2023-08-06T04:00:59;4.95;;;3.63;;
9821;SDS011;4950;46.042;14.472;2023-08-06T04:03:26;6.10;;;3.80;;
9821;SDS011;4950;46.042;14.472;2023-08-06T04:05:53;4.15;;;3.13;;
9821;SDS011;4950;46.042;14.472;2023-08-06T04:08:20;7.70;;;4.00;;
9821;SDS011;4950;46.042;14.472;2023-08-06T04:10:50;5.78;;;3.55;;
9821;SDS011;4950;46.042;14.472;2023-08-06T04:13:18;4.93;;;2.90;;
9821;SDS011;4950;46.042;14.472;2023-08-06T04:15:46;8.18;;;4.00;;
9821;SDS011;4950;46.042;14.472;2023-08-06T04:18:13;5.97;;;3.75;;
9821;SDS011;4950;46.042;14.472;2023-08-06T04:20:43;4.43;;;3.08;;
9821;SDS011;4950;46.042;14.472;2023-08-06T04:23:10;7.22;;;3.33;;
9821;SDS011;4950;46.042;14.472;2023-08-06T04:25:37;5.03;;;3.25;;
9821;SDS011;4950;46.042;14.472;2023-08-06T04:28:06;3.97;;;2.90;;
9821;SDS011;4950;46.042;14.472;2023-08-06T04:30:33;3.92;;;2.88;;
9821;SDS011;4950;46.042;14.472;2023-08-06T04:33:00;5.35;;;3.22;;
9821;SDS011;4950;46.042;14.472;2023-08-06T04:35:26;5.53;;;3.72;;
9821;SDS011;4950;46.042;14.472;2023-08-06T04:37:53;4.93;;;3.40;;
9821;SDS011;4950;46.042;14.472;2023-08-06T04:40:20;6.90;;;5.13;;
9821;SDS011;4950;46.042;14.472;2023-08-06T04:42:47;8.13;;;6.25;;
9821;SDS011;4950;46.042;14.472;2023-08-06T04:45:15;9.38;;;6.50;;
9821;SDS011;4950;46.042;14.472;2023-08-06T04:47:42;7.57;;;5.37;;
9821;SDS011;4950;46.042;14.472;2023-08-06T04:50:09;10.70;;;5.90;;
9821;SDS011;4950;46.042;14.472;2023-08-06T04:52:36;9.23;;;5.13;;
9821;SDS011;4950;46.042;14.472;2023-08-06T04:55:04;6.78;;;4.55;;
9821;SDS011;4950;46.042;14.472;2023-08-06T04:57:31;7.88;;;5.75;;
9821;SDS011;4950;46.042;14.472;2023-08-06T04:59:58;7.68;;;5.28;;
9821;SDS011;4950;46.042;14.472;2023-08-06T05:02:26;8.93;;;6.32;;
9821;SDS011;4950;46.042;14.472;2023-08-06T05:04:53;9.30;;;5.47;;
9821;SDS011;4950;46.042;14.472;2023-08-06T05:07:19;8.52;;;5.65;;
9821;SDS011;4950;46.042;14.472;2023-08-06T05:09:46;9.85;;;5.13;;
9821;SDS011;4950;46.042;14.472;2023-08-06T05:12:13;7.85;;;5.00;;
9821;SDS011;4950;46.042;14.472;2023-08-06T05:14:40;8.85;;;4.63;;
9821;SDS011;4950;46.042;14.472;2023-08-06T05:17:06;7.43;;;4.10;;
9821;SDS011;4950;46.042;14.472;2023-08-06T05:19:35;5.07;;;3.50;;
9821;SDS011;4950;46.042;14.472;2023-08-06T05:22:01;8.23;;;5.57;;
9821;SDS011;4950;46.042;14.472;2023-08-06T05:24:28;7.60;;;4.65;;
9821;SDS011;4950;46.042;14.472;2023-08-06T05:26:55;5.50;;;4.05;;
9821;SDS011;4950;46.042;14.472;2023-08-06T05:29:22;6.20;;;4.28;;
9821;SDS011;4950;46.042;14.472;2023-08-06T05:31:48;7.72;;;4.15;;
9821;SDS011;4950;46.042;14.472;2023-08-06T05:34:15;6.60;;;4.13;;
9821;SDS011;4950;46.042;14.472;2023-08-06T05:36:43;7.25;;;4.75;;
9821;SDS011;4950;46.042;14.472;2023-08-06T05:39:10;7.88;;;4.22;;
9821;SDS011;4950;46.042;14.472;2023-08-06T05:41:39;6.90;;;4.70;;
9821;SDS011;4950;46.042;14.472;2023-08-06T05:44:05;6.97;;;4.70;;
9821;SDS011;4950;46.042;14.472;2023-08-06T05:46:32;6.50;;;4.47;;
9821;SDS011;4950;46.042;14.472;2023-08-06T05:48:59;6.78;;;4.70;;
9821;SDS011;4950;46.042;14.472;2023-08-06T05:51:26;9.52;;;4.90;;
9821;SDS011;4950;46.042;14.472;2023-08-06T05:53:55;12.30;;;5.32;;
9821;SDS011;4950;46.042;14.472;2023-08-06T05:56:21;9.57;;;5.15;;
9821;SDS011;4950;46.042;14.472;2023-08-06T05:58:48;8.73;;;4.47;;
9821;SDS011;4950;46.042;14.472;2023-08-06T06:01:18;8.32;;;5.28;;
9821;SDS011;4950;46.042;14.472;2023-08-06T06:03:44;7.53;;;5.07;;
9821;SDS011;4950;46.042;14.472;2023-08-06T06:06:11;8.40;;;4.35;;
9821;SDS011;4950;46.042;14.472;2023-08-06T06:08:38;7.75;;;5.13;;
9821;SDS011;4950;46.042;14.472;2023-08-06T06:11:06;7.57;;;5.22;;
9821;SDS011;4950;46.042;14.472;2023-08-06T06:13:33;8.60;;;4.40;;
9821;SDS011;4950;46.042;14.472;2023-08-06T06:16:00;6.78;;;4.03;;
9821;SDS011;4950;46.042;14.472;2023-08-06T06:18:26;5.90;;;4.00;;
9821;SDS011;4950;46.042;14.472;2023-08-06T06:20:56;7.38;;;4.78;;
9821;SDS011;4950;46.042;14.472;2023-08-06T06:23:23;10.32;;;5.25;;
9821;SDS011;4950;46.042;14.472;2023-08-06T06:25:50;7.50;;;4.25;;
9821;SDS011;4950;46.042;14.472;2023-08-06T06:28:19;6.60;;;4.55;;
9821;SDS011;4950;46.042;14.472;2023-08-06T06:30:46;6.57;;;4.47;;
9821;SDS011;4950;46.042;14.472;2023-08-06T06:33:12;5.85;;;3.78;;
9821;SDS011;4950;46.042;14.472;2023-08-06T06:35:39;5.32;;;3.70;;
9821;SDS011;4950;46.042;14.472;2023-08-06T06:38:06;7.82;;;4.28;;
9821;SDS011;4950;46.042;14.472;2023-08-06T06:40:33;9.30;;;3.95;;
9821;SDS011;4950;46.042;14.472;2023-08-06T06:42:59;4.95;;;3.47;;
9821;SDS011;4950;46.042;14.472;2023-08-06T06:45:27;6.20;;;4.15;;
9821;SDS011;4950;46.042;14.472;2023-08-06T06:47:54;6.00;;;3.92;;
9821;SDS011;4950;46.042;14.472;2023-08-06T06:50:21;5.85;;;3.88;;
9821;SDS011;4950;46.042;14.472;2023-08-06T06:52:48;4.90;;;3.47;;
9821;SDS011;4950;46.042;14.472;2023-08-06T06:55:15;7.95;;;3.85;;
9821;SDS011;4950;46.042;14.472;2023-08-06T06:57:41;6.47;;;3.53;;
9821;SDS011;4950;46.042;14.472;2023-08-06T07:00:08;6.65;;;3.72;;
9821;SDS011;4950;46.042;14.472;2023-08-06T07:02:38;6.20;;;3.57;;
9821;SDS011;4950;46.042;14.472;2023-08-06T07:05:04;4.17;;;3.00;;
9821;SDS011;4950;46.042;14.472;2023-08-06T07:07:32;5.47;;;2.70;;
9821;SDS011;4950;46.042;14.472;2023-08-06T07:09:59;4.45;;;2.55;;
9821;SDS011;4950;46.042;14.472;2023-08-06T07:12:26;3.60;;;1.95;;
9821;SDS011;4950;46.042;14.472;2023-08-06T07:14:52;2.65;;;2.15;;
9821;SDS011;4950;46.042;14.472;2023-08-06T07:17:19;4.68;;;3.10;;
9821;SDS011;4950;46.042;14.472;2023-08-06T07:19:47;1.92;;;1.55;;
9821;SDS011;4950;46.042;14.472;2023-08-06T07:22:14;1.58;;;1.40;;
9821;SDS011;4950;46.042;14.472;2023-08-06T07:24:41;2.50;;;1.50;;
9821;SDS011;4950;46.042;14.472;2023-08-06T07:27:08;2.88;;;1.40;;
9821;SDS011;4950;46.042;14.472;2023-08-06T07:29:34;4.20;;;1.83;;
9821;SDS011;4950;46.042;14.472;2023-08-06T07:32:01;2.60;;;2.00;;
9821;SDS011;4950;46.042;14.472;2023-08-06T07:34:28;3.42;;;1.98;;
9821;SDS011;4950;46.042;14.472;2023-08-06T07:36:56;3.13;;;1.88;;
9821;SDS011;4950;46.042;14.472;2023-08-06T07:39:23;4.35;;;2.17;;
9821;SDS011;4950;46.042;14.472;2023-08-06T07:41:50;2.95;;;1.55;;
9821;SDS011;4950;46.042;14.472;2023-08-06T07:44:16;2.50;;;1.83;;
9821;SDS011;4950;46.042;14.472;2023-08-06T07:46:43;4.85;;;1.70;;
9821;SDS011;4950;46.042;14.472;2023-08-06T07:49:10;2.50;;;1.63;;
9821;SDS011;4950;46.042;14.472;2023-08-06T07:51:37;2.92;;;1.90;;
9821;SDS011;4950;46.042;14.472;2023-08-06T07:54:05;3.22;;;1.90;;
9821;SDS011;4950;46.042;14.472;2023-08-06T07:56:32;4.55;;;1.88;;
9821;SDS011;4950;46.042;14.472;2023-08-06T07:59:01;2.88;;;1.52;;
9821;SDS011;4950;46.042;14.472;2023-08-06T08:01:27;3.70;;;1.33;;
9821;SDS011;4950;46.042;14.472;2023-08-06T08:03:54;2.67;;;1.52;;
9821;SDS011;4950;46.042;14.472;2023-08-06T08:06:21;3.33;;;1.63;;
9821;SDS011;4950;46.042;14.472;2023-08-06T08:08:48;2.20;;;0.95;;
9821;SDS011;4950;46.042;14.472;2023-08-06T08:11:16;4.10;;;1.30;;
9821;SDS011;4950;46.042;14.472;2023-08-06T08:13:43;1.90;;;1.13;;
9821;SDS011;4950;46.042;14.472;2023-08-06T08:16:10;1.65;;;1.13;;
9821;SDS011;4950;46.042;14.472;2023-08-06T08:18:37;2.20;;;0.90;;
9821;SDS011;4950;46.042;14.472;2023-08-06T08:21:04;2.55;;;0.82;;
9821;SDS011;4950;46.042;14.472;2023-08-06T08:23:30;0.98;;;0.90;;
9821;SDS011;4950;46.042;14.472;2023-08-06T08:25:57;2.53;;;0.80;;
9821;SDS011;4950;46.042;14.472;2023-08-06T08:28:26;0.90;;;0.90;;
9821;SDS011;4950;46.042;14.472;2023-08-06T08:30:52;1.90;;;1.00;;
9821;SDS011;4950;46.042;14.472;2023-08-06T08:33:20;1.70;;;1.05;;
9821;SDS011;4950;46.042;14.472;2023-08-06T08:35:48;0.85;;;0.80;;
9821;SDS011;4950;46.042;14.472;2023-08-06T08:38:14;2.60;;;1.20;;
9821;SDS011;4950;46.042;14.472;2023-08-06T08:40:42;1.63;;;1.05;;
9821;SDS011;4950;46.042;14.472;2023-08-06T08:43:12;1.65;;;1.52;;
9821;SDS011;4950;46.042;14.472;2023-08-06T08:45:42;2.83;;;1.33;;
9821;SDS011;4950;46.042;14.472;2023-08-06T08:48:10;1.52;;;1.20;;
9821;SDS011;4950;46.042;14.472;2023-08-06T08:50:39;3.60;;;1.80;;
9821;SDS011;4950;46.042;14.472;2023-08-06T08:53:06;3.40;;;1.45;;
9821;SDS011;4950;46.042;14.472;2023-08-06T08:55:34;3.63;;;2.07;;
9821;SDS011;4950;46.042;14.472;2023-08-06T08:58:01;4.50;;;1.90;;
9821;SDS011;4950;46.042;14.472;2023-08-06T09:00:28;6.20;;;1.70;;
9821;SDS011;4950;46.042;14.472;2023-08-06T09:02:57;2.58;;;1.83;;
9821;SDS011;4950;46.042;14.472;2023-08-06T09:05:25;2.95;;;1.80;;
9821;SDS011;4950;46.042;14.472;2023-08-06T09:07:56;2.15;;;1.80;;
9821;SDS011;4950;46.042;14.472;2023-08-06T09:10:28;2.25;;;1.75;;
9821;SDS011;4950;46.042;14.472;2023-08-06T09:12:56;3.50;;;1.75;;
9821;SDS011;4950;46.042;14.472;2023-08-06T09:15:24;2.47;;;1.83;;
9821;SDS011;4950;46.042;14.472;2023-08-06T09:17:51;2.25;;;1.98;;
9821;SDS011;4950;46.042;14.472;2023-08-06T09:20:20;2.15;;;1.70;;
9821;SDS011;4950;46.042;14.472;2023-08-06T09:22:47;3.08;;;1.88;;
9821;SDS011;4950;46.042;14.472;2023-08-06T09:25:15;1.70;;;1.27;;
9821;SDS011;4950;46.042;14.472;2023-08-06T09:27:48;1.38;;;1.20;;
9821;SDS011;4950;46.042;14.472;2023-08-06T09:30:28;1.50;;;0.90;;
9821;SDS011;4950;46.042;14.472;2023-08-06T09:32:57;1.77;;;1.00;;
9821;SDS011;4950;46.042;14.472;2023-08-06T09:35:27;1.10;;;1.00;;
9821;SDS011;4950;46.042;14.472;2023-08-06T09:37:55;2.33;;;1.30;;
9821;SDS011;4950;46.042;14.472;2023-08-06T09:40:25;3.00;;;1.08;;
9821;SDS011;4950;46.042;14.472;2023-08-06T09:42:53;2.35;;;1.10;;
9821;SDS011;4950;46.042;14.472;2023-08-06T09:45:20;1.85;;;1.23;;
9821;SDS011;4950;46.042;14.472;2023-08-06T09:47:48;2.05;;;1.05;;
9821;SDS011;4950;46.042;14.472;2023-08-06T09:50:16;3.67;;;1.00;;
9821;SDS011;4950;46.042;14.472;2023-08-06T09:52:46;4.13;;;0.95;;
9821;SDS011;4950;46.042;14.472;2023-08-06T09:55:13;0.90;;;0.90;;
9821;SDS011;4950;46.042;14.472;2023-08-06T09:57:41;1.20;;;0.80;;
9821;SDS011;4950;46.042;14.472;2023-08-06T10:00:09;1.33;;;0.90;;
9821;SDS011;4950;46.042;14.472;2023-08-06T10:02:37;1.90;;;1.40;;
9821;SDS011;4950;46.042;14.472;2023-08-06T10:05:04;5.63;;;1.40;;
9821;SDS011;4950;46.042;14.472;2023-08-06T10:07:32;6.47;;;1.65;;
9821;SDS011;4950;46.042;14.472;2023-08-06T10:10:00;3.88;;;1.40;;
9821;SDS011;4950;46.042;14.472;2023-08-06T10:12:29;2.10;;;1.40;;
9821;SDS011;4950;46.042;14.472;2023-08-06T10:15:01;1.77;;;1.40;;
9821;SDS011;4950;46.042;14.472;2023-08-06T10:17:30;1.45;;;1.23;;
9821;SDS011;4950;46.042;14.472;2023-08-06T10:19:59;2.25;;;1.60;;
9821;SDS011;4950;46.042;14.472;2023-08-06T10:22:26;2.47;;;1.63;;
9821;SDS011;4950;46.042;14.472;2023-08-06T10:24:53;2.42;;;1.20;;
9821;SDS011;4950;46.042;14.472;2023-08-06T10:27:27;1.38;;;1.08;;
9821;SDS011;4950;46.042;14.472;2023-08-06T10:29:55;1.05;;;0.90;;
9821;SDS011;4950;46.042;14.472;2023-08-06T10:32:22;3.15;;;1.00;;
9821;SDS011;4950;46.042;14.472;2023-08-06T10:35:28;1.02;;;0.93;;
9821;SDS011;4950;46.042;14.472;2023-08-06T10:37:59;1.35;;;0.90;;
9821;SDS011;4950;46.042;14.472;2023-08-06T10:40:29;0.70;;;0.70;;
9821;SDS011;4950;46.042;14.472;2023-08-06T10:43:02;1.23;;;1.00;;
9821;SDS011;4950;46.042;14.472;2023-08-06T10:45:33;0.75;;;0.75;;
9821;SDS011;4950;46.042;14.472;2023-08-06T10:48:01;1.13;;;0.80;;
9821;SDS011;4950;46.042;14.472;2023-08-06T10:50:28;0.75;;;0.75;;
9821;SDS011;4950;46.042;14.472;2023-08-06T10:52:56;1.07;;;1.00;;
9821;SDS011;4950;46.042;14.472;2023-08-06T10:55:24;1.90;;;0.98;;
9821;SDS011;4950;46.042;14.472;2023-08-06T10:57:52;4.93;;;1.00;;
9821;SDS011;4950;46.042;14.472;2023-08-06T11:00:21;1.05;;;0.85;;
9821;SDS011;4950;46.042;14.472;2023-08-06T11:02:49;3.92;;;1.25;;
9821;SDS011;4950;46.042;14.472;2023-08-06T11:05:18;1.40;;;0.70;;
9821;SDS011;4950;46.042;14.472;2023-08-06T11:07:44;3.03;;;0.60;;
9821;SDS011;4950;46.042;14.472;2023-08-06T11:10:13;0.65;;;0.57;;
9821;SDS011;4950;46.042;14.472;2023-08-06T11:12:40;1.67;;;0.60;;
9821;SDS011;4950;46.042;14.472;2023-08-06T11:15:07;0.95;;;0.73;;
9821;SDS011;4950;46.042;14.472;2023-08-06T11:17:39;1.15;;;0.77;;
9821;SDS011;4950;46.042;14.472;2023-08-06T11:20:08;0.90;;;0.73;;
9821;SDS011;4950;46.042;14.472;2023-08-06T11:22:35;0.70;;;0.60;;
9821;SDS011;4950;46.042;14.472;2023-08-06T11:25:03;2.43;;;0.90;;
9821;SDS011;4950;46.042;14.472;2023-08-06T11:27:31;1.85;;;0.90;;
9821;SDS011;4950;46.042;14.472;2023-08-06T11:29:58;5.75;;;1.30;;
9821;SDS011;4950;46.042;14.472;2023-08-06T11:32:25;2.22;;;1.08;;
9821;SDS011;4950;46.042;14.472;2023-08-06T11:34:55;7.25;;;1.20;;
9821;SDS011;4950;46.042;14.472;2023-08-06T11:37:22;6.50;;;1.27;;
9821;SDS011;4950;46.042;14.472;2023-08-06T11:39:52;2.25;;;1.20;;
9821;SDS011;4950;46.042;14.472;2023-08-06T11:42:19;5.00;;;1.20;;
9821;SDS011;4950;46.042;14.472;2023-08-06T11:44:45;1.85;;;1.00;;
9821;SDS011;4950;46.042;14.472;2023-08-06T11:47:14;0.90;;;0.68;;
9821;SDS011;4950;46.042;14.472;2023-08-06T11:49:43;2.42;;;1.00;;
9821;SDS011;4950;46.042;14.472;2023-08-06T11:52:16;1.92;;;1.05;;
9821;SDS011;4950;46.042;14.472;2023-08-06T11:54:45;3.92;;;1.10;;
9821;SDS011;4950;46.042;14.472;2023-08-06T11:57:13;4.13;;;1.10;;
9821;SDS011;4950;46.042;14.472;2023-08-06T11:59:41;5.90;;;1.10;;
9821;SDS011;4950;46.042;14.472;2023-08-06T12:02:09;2.13;;;1.10;;
9821;SDS011;4950;46.042;14.472;2023-08-06T12:07:28;1.92;;;1.10;;
9821;SDS011;4950;46.042;14.472;2023-08-06T12:09:55;5.97;;;1.23;;
9821;SDS011;4950;46.042;14.472;2023-08-06T12:12:22;4.45;;;1.38;;
9821;SDS011;4950;46.042;14.472;2023-08-06T12:14:49;4.15;;;1.30;;
9821;SDS011;4950;46.042;14.472;2023-08-06T12:17:16;6.40;;;1.40;;
9821;SDS011;4950;46.042;14.472;2023-08-06T12:19:44;4.07;;;1.20;;
9821;SDS011;4950;46.042;14.472;2023-08-06T12:22:11;3.53;;;1.10;;
9821;SDS011;4950;46.042;14.472;2023-08-06T12:24:40;3.75;;;1.42;;
9821;SDS011;4950;46.042;14.472;2023-08-06T12:27:07;7.82;;;1.75;;
9821;SDS011;4950;46.042;14.472;2023-08-06T12:29:34;5.03;;;1.25;;
9821;SDS011;4950;46.042;14.472;2023-08-06T12:32:01;2.53;;;1.17;;
9821;SDS011;4950;46.042;14.472;2023-08-06T12:34:27;2.67;;;1.27;;
9821;SDS011;4950;46.042;14.472;2023-08-06T12:36:54;4.00;;;1.55;;
9821;SDS011;4950;46.042;14.472;2023-08-06T12:39:21;4.22;;;1.27;;
9821;SDS011;4950;46.042;14.472;2023-08-06T12:41:49;2.05;;;0.90;;
9821;SDS011;4950;46.042;14.472;2023-08-06T12:44:16;3.33;;;1.10;;
9821;SDS011;4950;46.042;14.472;2023-08-06T12:46:43;1.75;;;1.25;;
9821;SDS011;4950;46.042;14.472;2023-08-06T12:49:09;1.40;;;0.95;;
9821;SDS011;4950;46.042;14.472;2023-08-06T12:51:36;1.98;;;1.17;;
9821;SDS011;4950;46.042;14.472;2023-08-06T12:54:03;1.02;;;0.90;;
9821;SDS011;4950;46.042;14.472;2023-08-06T12:56:30;1.70;;;0.93;;
9821;SDS011;4950;46.042;14.472;2023-08-06T12:58:58;1.30;;;0.98;;
9821;SDS011;4950;46.042;14.472;2023-08-06T13:01:25;3.63;;;0.90;;
9821;SDS011;4950;46.042;14.472;2023-08-06T13:03:52;2.25;;;0.90;;
9821;SDS011;4950;46.042;14.472;2023-08-06T13:06:18;2.63;;;0.70;;
9821;SDS011;4950;46.042;14.472;2023-08-06T13:08:45;2.15;;;0.85;;
9821;SDS011;4950;46.042;14.472;2023-08-06T13:11:12;2.30;;;1.20;;
9821;SDS011;4950;46.042;14.472;2023-08-06T13:13:39;1.65;;;1.13;;
9821;SDS011;4950;46.042;14.472;2023-08-06T13:16:07;2.10;;;1.00;;
9821;SDS011;4950;46.042;14.472;2023-08-06T13:18:34;3.90;;;1.38;;
9821;SDS011;4950;46.042;14.472;2023-08-06T13:21:01;2.35;;;1.20;;
9821;SDS011;4950;46.042;14.472;2023-08-06T13:23:27;1.75;;;1.00;;
9821;SDS011;4950;46.042;14.472;2023-08-06T13:25:54;2.78;;;1.13;;
9821;SDS011;4950;46.042;14.472;2023-08-06T13:28:21;3.50;;;1.20;;
9821;SDS011;4950;46.042;14.472;2023-08-06T13:30:48;1.77;;;1.10;;
9821;SDS011;4950;46.042;14.472;2023-08-06T13:33:16;2.42;;;1.20;;
9821;SDS011;4950;46.042;14.472;2023-08-06T13:35:43;4.28;;;1.30;;
9821;SDS011;4950;46.042;14.472;2023-08-06T13:38:10;3.47;;;1.20;;
9821;SDS011;4950;46.042;14.472;2023-08-06T13:40:37;2.65;;;1.20;;
9821;SDS011;4950;46.042;14.472;2023-08-06T13:43:03;2.55;;;0.98;;
9821;SDS011;4950;46.042;14.472;2023-08-06T13:45:30;1.35;;;1.00;;
9821;SDS011;4950;46.042;14.472;2023-08-06T13:47:59;2.28;;;1.20;;
9821;SDS011;4950;46.042;14.472;2023-08-06T13:50:27;3.40;;;1.00;;
9821;SDS011;4950;46.042;14.472;2023-08-06T13:52:54;3.35;;;1.55;;
9821;SDS011;4950;46.042;14.472;2023-08-06T13:55:21;1.88;;;1.25;;
9821;SDS011;4950;46.042;14.472;2023-08-06T13:57:48;2.42;;;0.98;;
9821;SDS011;4950;46.042;14.472;2023-08-06T14:00:16;1.52;;;0.88;;
9821;SDS011;4950;46.042;14.472;2023-08-06T14:02:43;2.70;;;1.08;;
9821;SDS011;4950;46.042;14.472;2023-08-06T14:05:10;2.78;;;1.00;;
9821;SDS011;4950;46.042;14.472;2023-08-06T14:07:38;6.57;;;1.10;;
9821;SDS011;4950;46.042;14.472;2023-08-06T14:10:05;3.97;;;1.20;;
9821;SDS011;4950;46.042;14.472;2023-08-06T14:12:34;2.80;;;1.13;;
9821;SDS011;4950;46.042;14.472;2023-08-06T14:15:01;3.83;;;1.40;;
9821;SDS011;4950;46.042;14.472;2023-08-06T14:17:28;2.92;;;1.13;;
9821;SDS011;4950;46.042;14.472;2023-08-06T14:19:55;2.00;;;1.30;;
9821;SDS011;4950;46.042;14.472;2023-08-06T14:22:22;3.47;;;1.23;;
9821;SDS011;4950;46.042;14.472;2023-08-06T14:24:50;4.15;;;1.38;;
9821;SDS011;4950;46.042;14.472;2023-08-06T14:27:17;1.73;;;1.00;;
9821;SDS011;4950;46.042;14.472;2023-08-06T14:29:43;7.78;;;2.50;;
9821;SDS011;4950;46.042;14.472;2023-08-06T14:32:10;4.38;;;1.70;;
9821;SDS011;4950;46.042;14.472;2023-08-06T14:34:37;3.15;;;1.50;;
9821;SDS011;4950;46.042;14.472;2023-08-06T14:37:04;2.95;;;1.20;;
9821;SDS011;4950;46.042;14.472;2023-08-06T14:39:31;2.22;;;1.02;;
9821;SDS011;4950;46.042;14.472;2023-08-06T14:41:59;4.85;;;1.40;;
9821;SDS011;4950;46.042;14.472;2023-08-06T14:44:26;2.67;;;1.40;;
9821;SDS011;4950;46.042;14.472;2023-08-06T14:46:52;4.45;;;1.55;;
9821;SDS011;4950;46.042;14.472;2023-08-06T14:49:19;3.17;;;1.75;;
9821;SDS011;4950;46.042;14.472;2023-08-06T14:51:46;2.33;;;1.13;;
9821;SDS011;4950;46.042;14.472;2023-08-06T14:54:13;2.65;;;1.27;;
9821;SDS011;4950;46.042;14.472;2023-08-06T14:56:39;1.90;;;1.15;;
9821;SDS011;4950;46.042;14.472;2023-08-06T14:59:07;1.50;;;1.02;;
9821;SDS011;4950;46.042;14.472;2023-08-06T15:01:34;1.97;;;1.20;;
9821;SDS011;4950;46.042;14.472;2023-08-06T15:04:01;1.45;;;1.10;;
9821;SDS011;4950;46.042;14.472;2023-08-06T15:06:28;1.92;;;1.30;;
9821;SDS011;4950;46.042;14.472;2023-08-06T15:08:55;1.30;;;0.90;;
9821;SDS011;4950;46.042;14.472;2023-08-06T15:11:25;0.93;;;0.85;;